Werte bis 5 Uhr SommerzeitDiagramme Kirchhain: Tagesdaten MonatsdatenCSV-Datei: Kirchhain21.csv

Wetterdaten 2021 Station: Kirchhain
Temperaturen in °C relative Nieder- Global- Wind Wind Wind- Sonnen-
Datum Boden Boden Luft Luft Luft Luft Feuchte schlag strahlung max richtung schein
20 cm 5 cm 20 cm 2 m 2 m max 2 m min % mm W/m2*d m/s m/s ° h

06.05.2021 9,1 8,3 3,0 3,5 4,2 2,0 92 0,0 0 0,5 2,8 --- ---
05.05.2021 9,2 8,7 5,5 5,7 11,0 2,0 83 9,7 3649 1,1 10,4 --- 8,1
04.05.2021 9,5 9,5 9,5 9,8 13,3 6,4 68 2,6 1924 2,1 12,8 --- 5,8
03.05.2021 9,5 9,5 7,7 8,0 15,2 -1,1 61 0,0 5406 0,9 6,4 --- 10,4
02.05.2021 9,9 9,9 7,7 8,0 12,5 3,2 62 0,0 2515 0,7 4,7 --- 8,9
01.05.2021 9,8 10,7 10,2 10,3 15,0 6,1 65 0,0 3967 0,6 3,9 --- 11,0
30.04.2021 9,7 10,2 8,4 8,3 12,8 4,6 73 0,0 2855 0,7 3,5 --- 9,1
29.04.2021 9,7 10,8 10,8 10,8 17,0 5,4 75 4,5 5068 1,4 8,4 --- 8,4
28.04.2021 9,2 10,1 11,4 11,5 22,7 0,3 57 5,2 5451 0,8 5,9 --- 9,6
27.04.2021 9,0 9,6 9,1 9,1 16,0 -0,1 43 0,0 6444 1,2 6,2 --- 10,1
26.04.2021 9,1 9,3 6,9 6,8 14,4 -2,0 48 0,0 6536 1,1 5,8 --- 10,5
25.04.2021 9,1 9,6 6,9 6,8 13,2 0,4 55 0,0 6512 1,1 6,7 --- 10,5
24.04.2021 9,0 9,6 7,6 7,6 14,6 -0,3 62 0,0 5552 0,7 5,1 --- 10,4
23.04.2021 8,8 9,5 7,2 7,1 16,1 -0,8 66 0,0 6340 0,8 4,4 --- 11,5
22.04.2021 8,8 9,5 7,3 7,3 14,0 0,7 60 0,0 5978 0,9 5,4 --- 10,0
21.04.2021 8,6 9,8 10,3 10,5 18,4 4,9 77 2,8 3632 0,6 6,6 --- 7,9
20.04.2021 8,0 8,9 9,3 9,5 19,1 0,5 73 0,0 5671 0,5 4,3 --- 9,0
19.04.2021 7,7 8,6 8,2 8,3 14,0 3,5 83 0,2 3500 0,7 5,2 --- 9,5
18.04.2021 7,2 7,8 8,2 8,0 14,5 5,1 86 12,3 2554 0,4 4,2 --- 6,2
17.04.2021 6,9 6,9 6,2 6,4 9,5 0,4 63 0,0 2318 0,6 4,7 --- 7,9
16.04.2021 6,8 6,8 6,2 6,2 10,2 1,2 60 0,0 2616 0,8 6,0 --- 8,2
15.04.2021 6,8 6,3 2,9 3,1 9,6 -3,0 76 0,1 2965 0,7 5,9 --- 8,1
14.04.2021 6,9 6,7 3,1 3,1 9,3 -2,0 76 0,1 4188 0,7 6,7 --- 7,8
13.04.2021 7,0 6,5 2,5 2,7 10,3 -3,4 77 0,0 3561 0,5 5,3 --- 8,7
12.04.2021 7,3 7,1 3,7 3,8 8,6 -0,6 77 0,3 3349 0,6 5,9 --- 8,4
11.04.2021 7,4 7,9 7,2 7,3 13,2 2,3 93 11,5 999 0,5 4,6 --- 2,3
10.04.2021 7,1 7,6 7,8 7,8 9,4 5,9 93 11,8 1292 0,5 4,5 --- 5,2
09.04.2021 6,5 6,5 6,4 6,8 16,4 -1,5 61 0,0 4662 0,7 6,1 --- 9,4
08.04.2021 6,4 5,7 3,2 3,4 8,8 -0,3 68 0,1 2987 0,9 7,0 --- 9,7
07.04.2021 6,7 5,6 1,5 1,6 5,1 -0,8 82 1,1 1294 1,4 7,1 --- 4,1
06.04.2021 7,1 6,1 1,7 1,8 7,2 -1,0 76 0,6 3646 1,3 7,6 --- 7,8
05.04.2021 7,7 6,9 2,6 2,7 5,2 -1,0 78 3,8 2035 1,4 8,5 --- 4,8
04.04.2021 7,9 8,0 5,0 4,9 11,8 -0,5 70 0,0 3933 0,6 3,5 --- 9,8
03.04.2021 8,2 8,5 6,3 6,4 12,1 1,4 65 0,0 4446 1,0 6,2 --- 8,3
02.04.2021 8,4 9,2 8,0 7,7 13,0 5,3 64 0,0 3733 1,2 7,1 --- 8,5
01.04.2021 8,1 9,5 12,3 12,6 24,7 4,8 65 0,0 4585 0,9 7,5 --- 9,1
31.03.2021 7,7 8,9 11,9 12,6 25,5 1,5 61 0,0 4620 0,4 3,9 --- 8,1
30.03.2021 7,3 8,4 10,4 11,1 24,0 0,4 61 0,0 4740 0,3 2,9 --- 8,2
29.03.2021 6,8 8,1 12,4 12,9 22,3 5,5 55 0,0 4669 0,9 6,7 --- 8,9
28.03.2021 6,4 6,5 7,4 7,8 14,9 0,0 70 0,0 3024 0,9 7,6 --- 8,0
27.03.2021 6,8 7,1 6,1 6,5 11,2 2,2 75 2,9 2469 1,3 11,0 --- 6,4
26.03.2021 6,5 7,8 10,7 11,0 17,0 5,8 69 0,0 3636 0,8 5,8 --- 8,8
25.03.2021 5,8 6,5 7,3 7,6 16,9 -0,6 76 0,0 3194 0,3 3,0 --- 8,2
24.03.2021 5,6 5,8 5,4 5,8 15,8 -2,4 78 0,0 4270 0,6 5,3 --- 7,7
23.03.2021 5,5 5,9 5,9 6,2 11,3 0,8 75 0,0 2009 0,4 3,3 --- 6,3
22.03.2021 5,3 5,4 5,1 5,2 8,1 3,3 77 0,2 1569 0,7 5,3 --- 4,8
21.03.2021 5,1 5,2 5,5 5,5 9,1 3,0 68 0,0 2365 1,1 7,8 --- 7,6
20.03.2021 4,8 4,5 2,3 2,3 7,2 -2,6 52 0,0 3918 0,7 4,2 --- 7,3
19.03.2021 4,9 4,6 2,2 2,4 7,2 0,1 79 1,6 2911 1,0 10,5 --- 6,9
18.03.2021 4,9 4,3 1,3 1,4 8,7 -3,8 82 2,0 2876 0,5 5,8 --- 7,1
17.03.2021 5,2 4,8 1,5 1,8 5,6 -2,5 82 0,4 1359 0,6 4,7 --- 5,0
16.03.2021 5,3 5,3 4,9 5,1 9,8 2,1 74 0,0 2343 0,7 5,8 --- 6,7
15.03.2021 5,2 5,2 4,7 4,9 9,8 2,7 85 1,8 2392 1,1 7,4 --- 7,0
14.03.2021 5,2 5,1 4,2 4,3 7,9 2,2 84 0,6 1843 1,1 6,0 --- 6,5
13.03.2021 5,2 5,4 5,5 5,8 9,4 2,6 85 11,6 1576 2,1 11,9 --- 4,4
12.03.2021 5,0 5,5 6,7 6,8 11,5 3,8 73 3,6 3032 2,2 10,6 --- 7,1
11.03.2021 4,6 5,3 8,5 8,7 13,9 5,5 76 3,5 1883 2,2 9,4 --- 4,9
10.03.2021 4,0 4,2 5,5 5,7 9,1 2,1 80 0,0 1787 0,8 6,2 --- 5,8
09.03.2021 3,8 3,5 2,2 2,4 5,0 -0,5 92 0,6 1119 0,5 4,7 --- 3,9
08.03.2021 3,7 3,1 1,4 1,5 6,2 -2,6 82 0,0 1424 0,3 2,7 --- 5,3
07.03.2021 3,8 2,8 -0,4 0,0 8,7 -6,4 77 0,0 3311 0,5 6,9 --- 6,7
06.03.2021 4,3 3,3 -0,7 -0,3 6,8 -6,2 76 0,0 3253 0,4 4,5 --- 6,8
05.03.2021 4,7 4,7 2,6 2,7 6,3 -2,5 73 0,1 2487 1,0 6,5 --- 6,5
04.03.2021 4,6 4,8 5,0 5,2 10,7 1,9 93 4,6 1026 0,4 5,6 --- 2,9
03.03.2021 4,4 4,3 3,8 4,3 14,7 -2,2 86 0,0 2555 0,3 3,7 --- 7,3
02.03.2021 4,3 4,4 4,1 4,4 14,8 -1,1 84 0,0 3148 0,5 3,0 --- 7,5
01.03.2021 4,2 4,2 3,4 3,6 10,7 -1,4 91 0,0 2263 0,6 3,7 --- 6,2
28.02.2021 4,2 4,3 5,0 5,4 11,5 -0,4 81 0,0 2853 0,6 4,1 --- 6,1
27.02.2021 4,1 3,8 1,9 2,1 8,0 -3,1 91 0,1 1779 0,6 5,0 --- 5,6
26.02.2021 4,3 4,5 4,3 4,6 8,4 1,0 95 6,8 854 0,4 6,2 --- 3,2
25.02.2021 4,1 4,7 7,5 8,3 19,1 0,6 83 0,0 2436 0,4 3,8 --- 5,9
24.02.2021 3,7 4,4 7,5 8,3 18,7 1,5 86 0,0 2302 0,3 2,9 --- 6,0
23.02.2021 3,1 3,7 7,3 7,8 17,7 1,7 85 0,0 2253 0,3 3,1 --- 6,2
22.02.2021 2,8 2,6 2,8 3,6 12,3 -2,7 90 0,0 1954 0,3 2,7 --- 5,2
21.02.2021 2,8 2,9 5,1 6,0 18,1 -1,2 82 0,0 2434 0,4 5,8 --- 5,8
20.02.2021 2,4 2,5 5,0 5,7 16,8 -0,8 86 0,0 2136 0,4 4,8 --- 5,4
19.02.2021 2,0 1,9 4,4 5,1 10,6 0,1 87 0,1 1780 0,6 8,4 --- 5,0
18.02.2021 1,9 1,2 2,4 3,0 10,1 -1,9 90 0,2 1334 0,3 4,3 --- 4,9
17.02.2021 1,9 1,1 4,3 5,1 9,7 0,3 93 2,7 1595 0,6 5,4 --- 4,9
16.02.2021 1,9 0,9 2,0 2,5 7,9 -0,5 91 8,8 1680 0,2 1,7 --- 5,0
15.02.2021 2,0 0,7 -4,1 -3,8 1,2 -10,7 83 1,2 774 0,4 4,6 --- 2,3
14.02.2021 2,2 0,7 -10,7 -10,0 -0,6 -17,5 81 3,4 2262 0,3 1,8 --- 5,4
13.02.2021 2,4 0,9 -10,6 -9,8 -2,3 -16,6 82 1,2 2110 0,5 4,3 --- 5,4
12.02.2021 2,7 1,3 -9,6 -9,2 -3,4 -15,0 82 0,1 2231 1,0 5,8 --- 5,3
11.02.2021 3,0 1,8 -6,2 -5,6 -0,6 -10,8 82 4,6 1806 0,5 3,7 --- 3,7
10.02.2021 3,3 1,9 -11,0 -10,5 -4,4 -17,7 84 0,0 1919 0,6 8,6 --- 5,0
09.02.2021 3,5 2,3 -10,7 -10,4 -7,0 -14,9 81 0,0 1160 0,6 2,5 --- 3,9
08.02.2021 3,6 2,1 -7,2 -7,2 -5,7 -9,0 83 0,0 1051 1,5 5,3 --- 3,9
07.02.2021 4,1 2,8 -3,1 -3,2 0,0 -6,1 90 0,0 235 1,9 7,4 --- ---
06.02.2021 4,8 4,4 2,7 2,8 5,4 -0,3 96 3,7 368 1,6 8,2 --- ---
05.02.2021 4,9 4,5 3,3 3,5 5,4 0,8 99 5,7 339 0,2 1,7 --- ---
04.02.2021 5,0 5,5 6,2 6,6 10,6 2,3 86 0,6 1315 0,8 6,3 --- 4,4
03.02.2021 4,5 5,3 9,0 9,3 11,9 7,6 94 5,6 588 1,1 9,5 --- 1,4
02.02.2021 3,8 3,8 5,3 5,5 8,9 3,0 98 3,0 414 0,6 3,1 --- 0,1
01.02.2021 3,5 2,7 1,7 1,8 3,2 0,4 96 2,2 433 0,7 3,5 --- 0,2
31.01.2021 3,7 2,4 -0,8 -0,5 3,4 -4,8 81 0,0 1465 0,9 5,9 --- 4,5
30.01.2021 4,1 3,9 2,5 2,6 8,2 -0,5 81 0,6 743 1,8 7,7 --- 2,2
29.01.2021 3,9 3,8 5,0 5,2 10,3 1,8 93 9,2 536 0,9 7,8 --- 1,6
28.01.2021 3,6 3,2 2,8 2,9 4,2 2,0 99 14,5 175 0,5 3,9 --- ---
27.01.2021 3,6 2,6 0,6 0,8 2,2 -1,0 96 1,4 363 0,8 5,0 --- 0,1
26.01.2021 3,7 2,8 1,5 1,7 4,2 -0,8 92 0,9 640 0,9 5,9 --- 1,4
25.01.2021 3,9 2,8 -0,7 -0,5 2,1 -2,3 96 1,1 715 0,3 2,2 --- 1,6
24.01.2021 4,2 3,4 1,1 1,2 4,0 -0,5 95 6,5 652 0,6 5,3 --- 1,2
23.01.2021 4,4 3,8 1,9 2,2 4,3 -0,2 97 0,2 386 0,5 3,0 --- 0,2
22.01.2021 4,5 4,7 5,0 5,2 10,1 0,8 91 4,8 500 1,3 12,2 --- 0,4
21.01.2021 3,9 4,0 7,5 7,8 9,7 4,9 73 4,7 554 2,0 10,9 --- 1,8
20.01.2021 3,6 3,1 3,5 4,2 8,7 -0,5 80 0,0 855 0,7 6,1 --- 2,8
19.01.2021 3,5 3,0 3,0 3,2 5,0 1,6 93 3,8 187 1,6 7,5 --- ---
18.01.2021 3,3 2,6 1,7 2,0 3,5 -1,0 95 0,1 397 0,9 5,5 --- 0,6
17.01.2021 3,2 2,2 -1,2 -1,1 1,0 -2,5 94 1,6 321 0,4 2,3 --- ---
16.01.2021 3,4 2,2 -1,1 -1,0 0,4 -2,0 73 0,0 431 0,7 5,3 --- ---
15.01.2021 3,5 2,4 0,0 0,2 1,5 -2,0 81 0,0 322 0,5 3,6 --- ---
14.01.2021 3,6 2,6 1,1 1,3 3,1 0,0 74 0,0 495 0,8 6,7 --- 0,6
13.01.2021 3,7 2,5 1,0 1,5 4,6 -2,0 87 0,1 643 1,0 5,9 --- 1,7
12.01.2021 3,8 2,8 1,7 2,0 4,1 -1,1 93 2,0 200 1,0 5,8 --- ---
11.01.2021 4,0 2,5 -1,2 -1,0 1,4 -3,2 88 0,0 813 1,1 6,7 --- 2,9
10.01.2021 4,2 3,2 -0,1 0,2 2,0 -2,4 90 0,0 608 0,3 1,9 --- 1,5
09.01.2021 4,5 3,4 0,0 0,3 2,6 -1,3 91 0,0 479 0,2 2,7 --- 1,1
08.01.2021 4,6 3,6 0,9 1,0 2,5 0,3 97 2,8 439 0,5 4,0 --- 0,4
07.01.2021 4,7 3,7 1,0 1,1 2,7 0,4 91 0,4 522 0,8 4,6 --- 1,6
06.01.2021 4,7 3,9 2,0 2,2 3,1 1,1 90 0,2 255 0,5 3,2 --- ---
05.01.2021 4,7 3,6 1,4 1,6 2,1 1,0 93 0,4 152 0,9 3,9 --- ---
04.01.2021 4,8 3,7 1,0 1,2 1,6 0,6 92 0,6 112 0,8 3,6 --- ---
03.01.2021 5,0 4,0 1,8 2,0 2,8 0,7 84 0,1 267 1,0 6,2 --- ---
02.01.2021 5,2 4,3 1,4 1,6 2,8 0,4 95 0,0 446 0,3 2,1 --- 0,1
01.01.2021 5,2 4,3 1,5 1,6 2,7 0,6 98 2,4 271 0,2 1,4 --- ---

Mittelwerte (Temperaturen, Strahlung, rel. Feuchte, Wind), Summe (Regen) für 2021
5,4 5,1 3,6 3,9 80 209 2.195 0,8

Landesbetrieb Landwirtschaft Hessen 2009

      Werte bis 5 Uhr SommerzeitCSV-Datei: Kirchhain21.csvDiagramm: Kirchhain